createdAt,value
2019-02-20T00:00:17.728Z,41.33
2019-02-20T00:00:53.267Z,40.58
2019-02-20T00:01:28.583Z,37.30
2019-02-20T00:02:03.924Z,37.70
2019-02-20T00:02:39.330Z,39.15
2019-02-20T00:03:14.785Z,41.92
2019-02-20T00:03:50.263Z,42.13
2019-02-20T00:04:25.546Z,43.00
2019-02-20T00:05:00.866Z,44.95
2019-02-20T00:05:36.324Z,42.73
2019-02-20T00:06:11.728Z,41.88
2019-02-20T00:06:47.071Z,46.73
2019-02-20T00:07:22.388Z,44.40
2019-02-20T00:07:57.708Z,44.58
2019-02-20T00:08:33.029Z,42.27
2019-02-20T00:09:08.708Z,44.58
2019-02-20T00:09:44.308Z,47.45
2019-02-20T00:10:19.703Z,47.75
2019-02-20T00:10:55.128Z,48.17
2019-02-20T00:11:30.578Z,49.18
2019-02-20T00:12:05.909Z,49.33
2019-02-20T00:12:41.924Z,46.37
2019-02-20T00:13:17.394Z,47.53
2019-02-20T00:13:52.976Z,47.85
2019-02-20T00:14:28.424Z,57.78
2019-02-20T00:15:03.717Z,58.17
2019-02-20T00:15:39.071Z,48.60
2019-02-20T00:16:14.372Z,47.95
2019-02-20T00:16:49.824Z,54.03
2019-02-20T00:17:25.112Z,52.10
2019-02-20T00:18:00.644Z,48.10
2019-02-20T00:18:36.083Z,46.40
2019-02-20T00:19:11.524Z,47.17
2019-02-20T00:19:46.948Z,45.92
2019-02-20T00:20:22.458Z,47.15
2019-02-20T00:20:57.803Z,57.15
2019-02-20T00:21:33.234Z,48.70
2019-02-20T00:22:08.601Z,59.13
2019-02-20T00:22:44.109Z,55.85
2019-02-20T00:23:19.422Z,59.20
2019-02-20T00:23:54.812Z,51.20
2019-02-20T00:24:30.135Z,47.93
2019-02-20T00:25:06.029Z,45.92
2019-02-20T00:25:41.737Z,56.13
2019-02-20T00:26:17.094Z,56.35
2019-02-20T00:26:52.507Z,56.85
2019-02-20T00:27:27.806Z,66.17
2019-02-20T00:28:03.174Z,55.58
2019-02-20T00:28:38.816Z,50.80
2019-02-20T00:29:14.144Z,52.15
2019-02-20T00:29:49.668Z,53.55
2019-02-20T00:30:25.245Z,51.50
2019-02-20T00:31:00.829Z,61.85
2019-02-20T00:31:36.345Z,60.00
2019-02-20T00:32:11.729Z,54.25
2019-02-20T00:32:47.320Z,66.67
2019-02-20T00:33:22.745Z,79.20
2019-02-20T00:34:00.489Z,91.20
2019-02-20T00:34:36.065Z,108.25
2019-02-20T00:35:11.413Z,96.70
2019-02-20T00:35:46.864Z,116.25
2019-02-20T00:36:22.657Z,51.35
2019-02-20T00:36:58.012Z,92.75
2019-02-20T00:37:33.364Z,93.72
2019-02-20T00:38:08.887Z,56.15
2019-02-20T00:38:44.484Z,61.83
2019-02-20T00:39:19.985Z,64.00
2019-02-20T00:39:55.453Z,57.88
2019-02-20T00:40:30.927Z,59.83
2019-02-20T00:41:06.412Z,53.90
2019-02-20T00:41:41.725Z,55.78
2019-02-20T00:42:17.306Z,52.83
2019-02-20T00:42:52.709Z,52.67
2019-02-20T00:43:28.172Z,56.73
2019-02-20T00:44:15.137Z,66.57
2019-02-20T00:45:07.794Z,64.22
2019-02-20T00:46:08.712Z,51.02
2019-02-20T00:47:09.331Z,55.52
2019-02-20T00:48:09.852Z,53.48
2019-02-20T00:49:08.705Z,55.17
2019-02-20T00:49:47.178Z,53.05
2019-02-20T00:50:23.632Z,92.95
2019-02-20T00:51:08.244Z,120.45
2019-02-20T00:52:08.445Z,54.80
2019-02-20T00:52:58.307Z,53.38
2019-02-20T00:53:39.272Z,54.53
2019-02-20T00:54:14.711Z,53.38
2019-02-20T00:54:50.067Z,56.08
2019-02-20T00:55:25.350Z,59.03
2019-02-20T00:56:00.690Z,77.03
2019-02-20T00:56:36.128Z,78.17
2019-02-20T00:57:11.432Z,57.23
2019-02-20T00:57:46.829Z,60.65
2019-02-20T00:58:22.068Z,55.58
2019-02-20T00:58:57.548Z,56.55
2019-02-20T00:59:32.953Z,68.35
2019-02-20T01:00:09.205Z,62.10
2019-02-20T01:00:44.644Z,64.55
2019-02-20T01:01:20.292Z,62.33
2019-02-20T01:01:55.589Z,59.35
2019-02-20T01:02:31.072Z,62.30
2019-02-20T01:03:06.464Z,65.70
2019-02-20T01:03:41.972Z,64.42
2019-02-20T01:04:17.444Z,68.10
2019-02-20T01:04:52.865Z,74.80
2019-02-20T01:05:28.288Z,65.47
2019-02-20T01:06:05.003Z,66.00
2019-02-20T01:06:40.526Z,67.08
2019-02-20T01:07:15.829Z,71.50
2019-02-20T01:07:51.368Z,73.02
2019-02-20T01:08:26.673Z,79.22
2019-02-20T01:09:02.108Z,73.57
2019-02-20T01:09:38.969Z,75.03
2019-02-20T01:10:14.257Z,72.32
2019-02-20T01:10:49.726Z,77.25
2019-02-20T01:11:25.234Z,81.85
2019-02-20T01:12:00.726Z,72.85
2019-02-20T01:12:36.126Z,85.60
2019-02-20T01:13:11.554Z,76.37
2019-02-20T01:13:46.986Z,96.82
2019-02-20T01:14:22.534Z,110.08
2019-02-20T01:14:57.950Z,72.85
2019-02-20T01:15:33.287Z,89.70
2019-02-20T01:16:08.867Z,129.38
2019-02-20T01:16:45.225Z,75.57
2019-02-20T01:17:20.578Z,73.33
2019-02-20T01:17:56.110Z,78.92
2019-02-20T01:18:31.438Z,86.10
2019-02-20T01:19:06.892Z,132.70
2019-02-20T01:19:42.317Z,183.27
2019-02-20T01:20:17.721Z,138.85
2019-02-20T01:20:53.154Z,60.05
2019-02-20T01:21:28.745Z,169.43
2019-02-20T01:22:04.247Z,117.95
2019-02-20T01:22:39.696Z,173.80
2019-02-20T01:23:15.190Z,167.55
2019-02-20T01:23:50.628Z,117.80
2019-02-20T01:24:25.992Z,123.02
2019-02-20T01:25:01.657Z,83.30
2019-02-20T01:25:37.069Z,67.00
2019-02-20T01:26:12.471Z,68.47
2019-02-20T01:26:47.916Z,107.40
2019-02-20T01:27:23.459Z,94.83
2019-02-20T01:27:58.868Z,162.15
2019-02-20T01:28:34.533Z,161.77
2019-02-20T01:29:09.866Z,121.10
2019-02-20T01:29:45.126Z,118.67
2019-02-20T01:30:20.446Z,144.57
2019-02-20T01:30:55.815Z,132.78
2019-02-20T01:31:31.107Z,176.78
2019-02-20T01:32:06.477Z,101.92
2019-02-20T01:32:41.812Z,85.20
2019-02-20T01:33:17.532Z,83.15
2019-02-20T01:33:53.209Z,102.67
2019-02-20T01:34:28.727Z,108.42
2019-02-20T01:35:04.026Z,69.32
2019-02-20T01:35:39.373Z,95.15
2019-02-20T01:36:14.634Z,55.10
2019-02-20T01:36:49.987Z,88.95
2019-02-20T01:37:25.306Z,80.25
2019-02-20T01:38:00.693Z,118.62
2019-02-20T01:38:36.085Z,55.65
2019-02-20T01:39:11.506Z,69.72
2019-02-20T01:39:47.002Z,96.37
2019-02-20T01:40:22.590Z,76.75
2019-02-20T01:40:58.098Z,96.32
2019-02-20T01:41:33.449Z,71.53
2019-02-20T01:42:08.850Z,79.97
2019-02-20T01:42:44.208Z,73.28
2019-02-20T01:43:19.748Z,91.42
2019-02-20T01:43:55.251Z,91.12
2019-02-20T01:44:30.884Z,70.05
2019-02-20T01:45:06.564Z,60.78
2019-02-20T01:45:41.973Z,69.80
2019-02-20T01:46:17.439Z,73.80
2019-02-20T01:46:53.110Z,76.53
2019-02-20T01:47:28.549Z,114.92
2019-02-20T01:48:03.892Z,119.62
2019-02-20T01:48:39.333Z,78.15
2019-02-20T01:49:14.655Z,114.57
2019-02-20T01:49:50.060Z,81.28
2019-02-20T01:50:25.675Z,64.47
2019-02-20T01:51:01.049Z,71.90
2019-02-20T01:51:36.497Z,77.12
2019-02-20T01:52:12.046Z,80.53
2019-02-20T01:52:47.331Z,73.02
2019-02-20T01:53:22.774Z,81.95
2019-02-20T01:53:58.247Z,74.82
2019-02-20T01:54:33.670Z,82.42
2019-02-20T01:55:09.274Z,80.92
2019-02-20T01:55:44.744Z,88.05
2019-02-20T01:56:20.104Z,91.37
2019-02-20T01:56:57.213Z,90.28
2019-02-20T01:57:32.729Z,87.55
2019-02-20T01:58:08.239Z,84.92
2019-02-20T01:58:43.724Z,85.70
2019-02-20T01:59:19.230Z,109.57
2019-02-20T01:59:54.897Z,90.95
2019-02-20T02:00:30.177Z,87.47
2019-02-20T02:01:05.744Z,79.82
2019-02-20T02:01:41.177Z,84.25
2019-02-20T02:02:16.683Z,84.37
2019-02-20T02:02:52.104Z,83.07
2019-02-20T02:03:27.607Z,79.10
2019-02-20T02:04:03.435Z,84.28
2019-02-20T02:04:38.883Z,88.82
2019-02-20T02:05:15.784Z,85.92
2019-02-20T02:05:51.263Z,79.03
2019-02-20T02:06:26.707Z,87.00
2019-02-20T02:07:01.968Z,80.32
2019-02-20T02:07:37.508Z,89.50
2019-02-20T02:08:12.854Z,91.57
2019-02-20T02:08:48.208Z,87.00
2019-02-20T02:09:23.635Z,79.62
2019-02-20T02:09:59.192Z,76.75
2019-02-20T02:10:34.787Z,80.57
2019-02-20T02:11:10.786Z,82.33
2019-02-20T02:11:46.165Z,81.40
2019-02-20T02:12:21.710Z,83.12
2019-02-20T02:12:57.008Z,83.95
2019-02-20T02:13:32.607Z,79.92
2019-02-20T02:14:08.046Z,79.62
2019-02-20T02:14:43.384Z,82.25
2019-02-20T02:15:20.731Z,82.78
2019-02-20T02:15:56.174Z,70.65
2019-02-20T02:16:31.614Z,75.70
2019-02-20T02:17:07.347Z,80.03
2019-02-20T02:17:42.695Z,76.53
2019-02-20T02:18:18.162Z,76.15
2019-02-20T02:18:53.764Z,80.62
2019-02-20T02:19:29.234Z,79.53
2019-02-20T02:20:04.628Z,89.72
2019-02-20T02:20:39.974Z,94.67
2019-02-20T02:21:15.406Z,98.00
2019-02-20T02:21:50.707Z,97.53
2019-02-20T02:22:26.384Z,101.07
2019-02-20T02:23:01.786Z,108.95
2019-02-20T02:23:37.107Z,93.42
2019-02-20T02:24:12.502Z,75.10
2019-02-20T02:24:48.092Z,75.87
2019-02-20T02:25:23.386Z,80.55
2019-02-20T02:25:58.952Z,105.03
2019-02-20T02:26:34.245Z,87.62
2019-02-20T02:27:09.596Z,81.87
2019-02-20T02:27:45.026Z,81.47
2019-02-20T02:28:20.406Z,78.22
2019-02-20T02:28:55.846Z,86.50
2019-02-20T02:29:31.406Z,94.67
2019-02-20T02:30:07.712Z,80.72
2019-02-20T02:30:43.020Z,73.78
2019-02-20T02:31:18.533Z,89.45
2019-02-20T02:31:54.350Z,77.72
2019-02-20T02:32:29.691Z,100.10
2019-02-20T02:33:05.389Z,89.03
2019-02-20T02:33:40.711Z,101.82
2019-02-20T02:34:16.307Z,128.12
2019-02-20T02:34:51.708Z,93.45
2019-02-20T02:35:27.065Z,87.95
2019-02-20T02:36:02.533Z,72.27
2019-02-20T02:36:37.765Z,73.87
2019-02-20T02:37:13.085Z,80.87
2019-02-20T02:37:48.533Z,86.08
2019-02-20T02:38:23.906Z,95.25
2019-02-20T02:38:59.206Z,89.40
2019-02-20T02:39:34.668Z,83.65
2019-02-20T02:40:10.748Z,105.32
2019-02-20T02:40:46.006Z,103.50
2019-02-20T02:41:21.368Z,128.02
2019-02-20T02:41:56.665Z,82.95
2019-02-20T02:42:32.267Z,74.25
2019-02-20T02:43:07.668Z,73.67
2019-02-20T02:43:42.927Z,86.90
2019-02-20T02:44:18.386Z,80.10
2019-02-20T02:44:54.266Z,69.27
2019-02-20T02:45:29.677Z,80.87
2019-02-20T02:46:05.109Z,100.07
2019-02-20T02:46:40.549Z,117.33
2019-02-20T02:47:16.016Z,182.53
2019-02-20T02:47:51.729Z,167.10
2019-02-20T02:48:27.129Z,176.35
2019-02-20T02:49:02.689Z,112.77
2019-02-20T02:49:38.111Z,150.40
2019-02-20T02:50:13.409Z,113.68
2019-02-20T02:50:48.869Z,172.02
2019-02-20T02:51:24.287Z,185.43
2019-02-20T02:51:59.726Z,86.15
2019-02-20T02:52:35.199Z,216.85
2019-02-20T02:53:10.589Z,187.37
2019-02-20T02:53:46.094Z,182.78
2019-02-20T02:54:21.645Z,220.17
2019-02-20T02:54:57.104Z,183.32
2019-02-20T02:55:32.711Z,172.35
2019-02-20T02:56:08.265Z,117.35
2019-02-20T02:56:43.645Z,97.78
2019-02-20T02:57:19.103Z,110.90
2019-02-20T02:57:54.622Z,115.30
2019-02-20T02:58:29.904Z,106.87
2019-02-20T02:59:05.468Z,150.50
2019-02-20T02:59:40.832Z,96.55
2019-02-20T03:00:16.548Z,112.40
2019-02-20T03:00:54.191Z,99.47
2019-02-20T03:01:29.072Z,124.78
2019-02-20T03:02:04.470Z,178.95
2019-02-20T03:02:39.904Z,193.80
2019-02-20T03:03:15.392Z,139.90
2019-02-20T03:03:50.831Z,122.17
2019-02-20T03:04:26.306Z,107.35
2019-02-20T03:05:01.834Z,141.73
2019-02-20T03:05:37.147Z,176.15
2019-02-20T03:06:12.790Z,128.97
2019-02-20T03:06:48.326Z,125.40
2019-02-20T03:07:23.635Z,86.32
2019-02-20T03:07:58.884Z,73.00
2019-02-20T03:08:34.224Z,92.08
2019-02-20T03:09:09.951Z,100.67
2019-02-20T03:09:45.660Z,82.82
2019-02-20T03:10:21.109Z,74.65
2019-02-20T03:10:56.429Z,78.70
2019-02-20T03:11:31.764Z,82.20
2019-02-20T03:12:07.204Z,86.28
2019-02-20T03:12:42.687Z,76.50
2019-02-20T03:13:17.991Z,79.37
2019-02-20T03:13:53.363Z,81.37
2019-02-20T03:14:28.618Z,78.45
2019-02-20T03:15:04.125Z,84.95
2019-02-20T03:15:39.464Z,85.47
2019-02-20T03:16:14.704Z,76.70
2019-02-20T03:16:50.103Z,102.35
2019-02-20T03:17:25.584Z,82.78
2019-02-20T03:18:01.004Z,93.75
2019-02-20T03:18:36.463Z,90.32
2019-02-20T03:19:11.764Z,84.62
2019-02-20T03:19:47.326Z,86.95
2019-02-20T03:20:22.786Z,85.42
2019-02-20T03:20:58.133Z,82.02
2019-02-20T03:21:33.668Z,90.80
2019-02-20T03:22:08.924Z,80.45
2019-02-20T03:22:44.466Z,87.08
2019-02-20T03:23:19.786Z,80.42
2019-02-20T03:23:55.289Z,85.57
2019-02-20T03:24:30.824Z,87.82
2019-02-20T03:25:06.245Z,74.37
2019-02-20T03:25:41.804Z,83.17
2019-02-20T03:26:17.124Z,68.02
2019-02-20T03:26:52.906Z,70.37
2019-02-20T03:27:28.286Z,69.55
2019-02-20T03:28:03.646Z,67.67
2019-02-20T03:28:40.220Z,67.40
2019-02-20T03:29:15.704Z,71.55
2019-02-20T03:29:51.079Z,71.67
2019-02-20T03:30:26.485Z,78.40
2019-02-20T03:31:01.945Z,77.42
2019-02-20T03:31:37.354Z,81.80
2019-02-20T03:32:12.789Z,82.02
2019-02-20T03:32:48.308Z,79.53
2019-02-20T03:33:23.645Z,79.72
2019-02-20T03:33:58.947Z,79.82
2019-02-20T03:34:34.269Z,79.50
2019-02-20T03:35:09.826Z,72.60
2019-02-20T03:35:45.286Z,86.37
2019-02-20T03:36:20.686Z,84.65
2019-02-20T03:36:56.007Z,81.90
2019-02-20T03:37:31.366Z,77.65
2019-02-20T03:38:06.766Z,77.92
2019-02-20T03:38:42.163Z,82.00
2019-02-20T03:39:17.664Z,79.92
2019-02-20T03:39:52.964Z,69.55
2019-02-20T03:40:28.306Z,74.97
2019-02-20T03:41:03.872Z,82.55
2019-02-20T03:41:39.464Z,73.33
2019-02-20T03:42:14.923Z,75.65
2019-02-20T03:42:50.330Z,73.28
2019-02-20T03:43:25.830Z,76.28
2019-02-20T03:44:01.204Z,73.57
2019-02-20T03:44:36.734Z,72.12
2019-02-20T03:45:12.153Z,75.85
2019-02-20T03:45:47.586Z,76.87
2019-02-20T03:46:22.905Z,80.35
2019-02-20T03:46:58.344Z,67.20
2019-02-20T03:47:34.185Z,85.30
2019-02-20T03:48:09.512Z,69.37
2019-02-20T03:48:44.885Z,75.87
2019-02-20T03:49:20.234Z,68.10
2019-02-20T03:49:55.784Z,70.83
2019-02-20T03:50:31.031Z,82.88
2019-02-20T03:51:06.350Z,70.62
2019-02-20T03:51:41.767Z,91.50
2019-02-20T03:52:16.893Z,85.57
2019-02-20T03:52:52.364Z,74.95
2019-02-20T03:53:27.783Z,88.15
2019-02-20T03:54:03.264Z,76.55
2019-02-20T03:54:38.685Z,80.28
2019-02-20T03:55:14.094Z,74.35
2019-02-20T03:55:49.388Z,69.05
2019-02-20T03:56:24.912Z,75.42
2019-02-20T03:57:00.609Z,71.00
2019-02-20T03:57:35.904Z,71.55
2019-02-20T03:58:11.333Z,65.97
2019-02-20T03:58:46.666Z,80.72
2019-02-20T03:59:21.944Z,76.22
2019-02-20T03:59:57.483Z,64.40
2019-02-20T04:00:33.124Z,68.28
2019-02-20T04:01:08.732Z,68.55
2019-02-20T04:01:44.152Z,67.30
2019-02-20T04:02:19.526Z,74.25
2019-02-20T04:02:54.846Z,69.70
2019-02-20T04:03:30.184Z,67.55
2019-02-20T04:04:05.624Z,65.20
2019-02-20T04:04:40.924Z,66.10
2019-02-20T04:05:16.452Z,77.53
2019-02-20T04:05:51.683Z,73.22
2019-02-20T04:06:27.085Z,78.37
2019-02-20T04:07:02.664Z,76.33
2019-02-20T04:07:37.964Z,69.55
2019-02-20T04:08:13.223Z,71.25
2019-02-20T04:08:48.632Z,69.45
2019-02-20T04:09:23.992Z,68.78
2019-02-20T04:09:59.463Z,69.92
2019-02-20T04:10:34.903Z,70.72
2019-02-20T04:11:10.243Z,76.00
2019-02-20T04:11:45.684Z,77.47
2019-02-20T04:12:21.123Z,85.60
2019-02-20T04:12:56.796Z,66.87
2019-02-20T04:13:33.232Z,75.83
2019-02-20T04:14:08.525Z,78.07
2019-02-20T04:14:43.945Z,81.05
2019-02-20T04:15:19.512Z,76.72
2019-02-20T04:15:54.954Z,74.82
2019-02-20T04:16:30.363Z,71.75
2019-02-20T04:17:05.772Z,76.75
2019-02-20T04:17:41.104Z,63.87
2019-02-20T04:18:16.430Z,73.90
2019-02-20T04:18:51.888Z,71.42
2019-02-20T04:19:27.687Z,71.22
2019-02-20T04:20:03.147Z,66.72
2019-02-20T04:20:38.587Z,67.82
2019-02-20T04:21:13.952Z,69.75
2019-02-20T04:21:49.628Z,70.30
2019-02-20T04:22:24.986Z,69.70
2019-02-20T04:23:00.449Z,67.27
2019-02-20T04:23:35.948Z,67.62
2019-02-20T04:24:11.336Z,70.83
2019-02-20T04:24:47.029Z,69.70
2019-02-20T04:25:22.548Z,75.67
2019-02-20T04:25:58.076Z,92.42
2019-02-20T04:26:33.684Z,81.47
2019-02-20T04:27:09.271Z,69.65
2019-02-20T04:27:45.229Z,73.97
2019-02-20T04:28:20.564Z,86.22
2019-02-20T04:28:55.805Z,77.80
2019-02-20T04:29:31.164Z,79.35
2019-02-20T04:30:07.266Z,72.95
2019-02-20T04:30:42.745Z,70.87
2019-02-20T04:31:18.075Z,67.55
2019-02-20T04:31:53.646Z,71.95
2019-02-20T04:32:29.463Z,68.28
2019-02-20T04:33:04.956Z,73.87
2019-02-20T04:33:40.369Z,70.78
2019-02-20T04:34:16.047Z,70.67
2019-02-20T04:34:51.531Z,73.72
2019-02-20T04:35:27.024Z,72.65
2019-02-20T04:36:02.547Z,70.75
2019-02-20T04:36:37.946Z,76.12
2019-02-20T04:37:13.546Z,77.50
2019-02-20T04:37:48.868Z,84.15
2019-02-20T04:38:24.406Z,78.37
2019-02-20T04:38:59.688Z,73.22
2019-02-20T04:39:35.026Z,75.32
2019-02-20T04:40:10.549Z,72.42
2019-02-20T04:40:46.028Z,74.58
2019-02-20T04:41:21.526Z,73.60
2019-02-20T04:41:56.857Z,74.75
2019-02-20T04:42:32.386Z,73.95
2019-02-20T04:43:07.846Z,74.27
2019-02-20T04:43:43.124Z,76.70
2019-02-20T04:44:18.484Z,72.20
2019-02-20T04:44:53.866Z,75.60
2019-02-20T04:45:29.136Z,73.47
2019-02-20T04:46:04.644Z,73.35
2019-02-20T04:46:40.099Z,73.72
2019-02-20T04:47:15.406Z,73.12
2019-02-20T04:47:51.109Z,79.17
2019-02-20T04:48:26.466Z,71.75
2019-02-20T04:49:01.921Z,80.67
2019-02-20T04:49:37.305Z,72.22
2019-02-20T04:50:12.875Z,83.00
2019-02-20T04:50:48.304Z,72.78
2019-02-20T04:51:23.728Z,75.83
2019-02-20T04:51:59.236Z,74.35
2019-02-20T04:52:34.485Z,74.87
2019-02-20T04:53:10.005Z,74.47
2019-02-20T04:53:45.445Z,74.32
2019-02-20T04:54:20.764Z,68.95
2019-02-20T04:54:56.072Z,69.70
2019-02-20T04:55:31.564Z,74.12
2019-02-20T04:56:06.925Z,67.82
2019-02-20T04:56:42.240Z,72.65
2019-02-20T04:57:17.932Z,82.08
2019-02-20T04:58:14.959Z,85.65
2019-02-20T04:58:54.814Z,77.87
2019-02-20T04:59:30.644Z,86.45
2019-02-20T05:00:07.527Z,90.05
2019-02-20T05:00:43.469Z,70.37
2019-02-20T05:01:18.766Z,69.35
2019-02-20T05:01:54.146Z,76.57
2019-02-20T05:02:29.461Z,75.25
2019-02-20T05:03:04.987Z,80.60
2019-02-20T05:03:40.333Z,78.02
2019-02-20T05:04:15.735Z,70.03
2019-02-20T05:04:51.153Z,77.25
2019-02-20T05:05:26.611Z,78.10
2019-02-20T05:06:02.021Z,91.08
2019-02-20T05:06:37.385Z,85.10
2019-02-20T05:07:12.914Z,66.85
2019-02-20T05:07:48.344Z,80.55
2019-02-20T05:08:24.057Z,76.80
2019-02-20T05:08:59.569Z,71.12
2019-02-20T05:09:35.004Z,74.27
2019-02-20T05:10:11.299Z,72.42
2019-02-20T05:10:46.815Z,70.70
2019-02-20T05:11:22.292Z,66.25
2019-02-20T05:11:57.749Z,69.47
2019-02-20T05:12:33.049Z,70.92
2019-02-20T05:13:08.411Z,71.90
2019-02-20T05:13:43.729Z,69.42
2019-02-20T05:14:19.671Z,70.60
2019-02-20T05:14:55.006Z,73.05
2019-02-20T05:15:30.447Z,74.77
2019-02-20T05:16:05.726Z,66.00
2019-02-20T05:16:41.085Z,70.55
2019-02-20T05:17:16.444Z,72.05
2019-02-20T05:17:51.769Z,63.90
2019-02-20T05:18:27.168Z,61.53
2019-02-20T05:19:02.605Z,65.85
2019-02-20T05:19:37.926Z,68.45
2019-02-20T05:20:13.365Z,64.32
2019-02-20T05:20:48.890Z,67.22
2019-02-20T05:21:24.606Z,76.37
2019-02-20T05:22:00.168Z,70.78
2019-02-20T05:22:35.505Z,61.35
2019-02-20T05:23:11.054Z,65.90
2019-02-20T05:23:46.367Z,63.05
2019-02-20T05:24:24.715Z,63.48
2019-02-20T05:24:58.886Z,61.80
2019-02-20T05:25:34.264Z,61.00
2019-02-20T05:26:10.028Z,58.63
2019-02-20T05:26:45.369Z,63.00
2019-02-20T05:27:20.777Z,67.37
2019-02-20T05:27:56.075Z,63.25
2019-02-20T05:28:31.348Z,71.80
2019-02-20T05:29:06.771Z,66.02
2019-02-20T05:29:42.252Z,61.18
2019-02-20T05:30:17.772Z,54.63
2019-02-20T05:30:53.296Z,58.25
2019-02-20T05:31:28.640Z,58.70
2019-02-20T05:32:04.309Z,62.90
2019-02-20T05:32:40.440Z,60.12
2019-02-20T05:33:16.119Z,57.08
2019-02-20T05:33:51.812Z,63.95
2019-02-20T05:34:27.214Z,64.62
2019-02-20T05:35:02.536Z,64.27
2019-02-20T05:35:37.975Z,63.70
2019-02-20T05:36:13.286Z,63.40
2019-02-20T05:36:48.847Z,60.17
2019-02-20T05:37:24.155Z,67.60
2019-02-20T05:37:59.648Z,70.10
2019-02-20T05:38:34.926Z,57.45
2019-02-20T05:39:10.310Z,70.17
2019-02-20T05:39:45.778Z,66.12
2019-02-20T05:40:21.211Z,56.88
2019-02-20T05:40:56.516Z,66.60
2019-02-20T05:41:32.068Z,55.20
2019-02-20T05:42:07.374Z,59.67
2019-02-20T05:42:42.846Z,58.30
2019-02-20T05:43:18.206Z,55.25
2019-02-20T05:43:53.547Z,50.40
2019-02-20T05:44:29.070Z,47.23
2019-02-20T05:45:04.337Z,48.78
2019-02-20T05:45:40.266Z,45.80
2019-02-20T05:46:15.631Z,46.68
2019-02-20T05:46:51.047Z,42.40
2019-02-20T05:47:26.346Z,40.70
2019-02-20T05:48:01.809Z,45.92
2019-02-20T05:48:37.526Z,46.83
2019-02-20T05:49:12.947Z,41.53
2019-02-20T05:49:48.347Z,41.73
2019-02-20T05:50:23.790Z,42.93
2019-02-20T05:50:59.206Z,42.35
2019-02-20T05:51:34.627Z,46.88
2019-02-20T05:52:10.031Z,40.92
2019-02-20T05:52:45.305Z,41.10
2019-02-20T05:53:20.670Z,41.77
2019-02-20T05:53:56.074Z,40.70
2019-02-20T05:54:34.465Z,41.42
2019-02-20T05:55:08.516Z,40.48
2019-02-20T05:55:43.894Z,42.75
2019-02-20T05:56:19.209Z,45.63
2019-02-20T05:56:54.468Z,43.02
2019-02-20T05:57:29.808Z,41.60
2019-02-20T05:58:05.330Z,42.88
2019-02-20T05:58:40.669Z,45.10
2019-02-20T05:59:15.989Z,46.40
2019-02-20T05:59:51.353Z,45.63
2019-02-20T06:00:26.845Z,46.28
2019-02-20T06:01:02.228Z,49.20
2019-02-20T06:01:37.580Z,46.77
2019-02-20T06:02:12.958Z,48.25
2019-02-20T06:02:48.372Z,49.00
2019-02-20T06:03:23.787Z,49.50
2019-02-20T06:03:59.290Z,48.87
2019-02-20T06:04:34.626Z,50.48
2019-02-20T06:05:10.069Z,48.20
2019-02-20T06:05:45.385Z,49.20
2019-02-20T06:06:20.848Z,48.33
2019-02-20T06:06:56.130Z,48.42
2019-02-20T06:07:31.491Z,47.73
2019-02-20T06:08:06.901Z,49.40
2019-02-20T06:08:42.207Z,51.65
2019-02-20T06:09:17.602Z,46.53
2019-02-20T06:09:53.149Z,47.70
2019-02-20T06:10:28.680Z,48.10
2019-02-20T06:11:14.416Z,52.88
2019-02-20T06:11:41.074Z,52.48
2019-02-20T06:12:16.388Z,50.83
2019-02-20T06:12:51.855Z,55.17
2019-02-20T06:13:27.089Z,56.08
2019-02-20T06:14:02.906Z,46.65
2019-02-20T06:14:38.386Z,55.30
2019-02-20T06:15:14.049Z,55.55
2019-02-20T06:15:49.349Z,54.48
2019-02-20T06:16:24.788Z,58.17
2019-02-20T06:17:00.244Z,59.00
2019-02-20T06:17:35.711Z,51.50
2019-02-20T06:18:11.028Z,56.35
2019-02-20T06:18:46.528Z,55.98
2019-02-20T06:19:21.828Z,52.55
2019-02-20T06:19:57.288Z,51.53
2019-02-20T06:20:32.625Z,52.08
2019-02-20T06:21:08.144Z,56.00
2019-02-20T06:21:43.507Z,50.85
2019-02-20T06:22:18.884Z,50.88
2019-02-20T06:22:54.321Z,52.53
2019-02-20T06:23:29.864Z,51.85
2019-02-20T06:24:05.428Z,47.78
2019-02-20T06:24:44.042Z,43.90
2019-02-20T06:25:17.694Z,44.77
2019-02-20T06:25:53.132Z,40.92
2019-02-20T06:26:28.552Z,41.10
2019-02-20T06:27:04.116Z,43.40
2019-02-20T06:27:39.534Z,43.33
2019-02-20T06:28:14.928Z,41.58
2019-02-20T06:28:50.766Z,42.65
2019-02-20T06:29:26.193Z,43.00
2019-02-20T06:30:01.456Z,42.30
2019-02-20T06:30:36.955Z,43.45
2019-02-20T06:31:12.407Z,43.20
2019-02-20T06:31:47.868Z,40.98
2019-02-20T06:32:24.149Z,41.68
2019-02-20T06:33:00.145Z,41.40
2019-02-20T06:33:35.583Z,41.85
2019-02-20T06:34:10.972Z,43.35
2019-02-20T06:34:46.488Z,39.83
2019-02-20T06:35:21.809Z,42.00
2019-02-20T06:35:57.246Z,40.65
2019-02-20T06:36:32.508Z,38.70
2019-02-20T06:37:08.307Z,39.40
2019-02-20T06:37:43.714Z,34.75
2019-02-20T06:38:19.221Z,39.08
2019-02-20T06:38:54.607Z,39.18
2019-02-20T06:39:30.449Z,38.25
2019-02-20T06:40:06.044Z,34.55
2019-02-20T06:40:41.481Z,35.68
2019-02-20T06:41:17.088Z,36.55
2019-02-20T06:41:52.548Z,37.80
2019-02-20T06:42:27.845Z,36.63
2019-02-20T06:43:03.286Z,38.08
2019-02-20T06:43:38.806Z,38.42
2019-02-20T06:44:14.166Z,39.33
2019-02-20T06:44:49.748Z,44.13
2019-02-20T06:45:25.411Z,44.93
2019-02-20T06:46:00.793Z,37.20
2019-02-20T06:46:36.266Z,36.88
2019-02-20T06:47:11.610Z,41.70
2019-02-20T06:47:47.188Z,35.78
2019-02-20T06:48:22.816Z,40.83
2019-02-20T06:48:58.309Z,37.33
2019-02-20T06:49:33.708Z,38.38
2019-02-20T06:50:09.224Z,39.23
2019-02-20T06:50:44.584Z,40.55
2019-02-20T06:51:20.044Z,39.20
2019-02-20T06:51:55.431Z,39.48
2019-02-20T06:52:30.788Z,37.58
2019-02-20T06:53:06.264Z,35.78
2019-02-20T06:53:41.524Z,38.05
2019-02-20T06:54:17.350Z,39.98
2019-02-20T06:54:54.147Z,40.50
2019-02-20T06:55:30.073Z,35.85
2019-02-20T06:56:05.391Z,40.05
2019-02-20T06:56:40.833Z,39.23
2019-02-20T06:57:16.125Z,38.55
2019-02-20T06:57:51.366Z,35.35
2019-02-20T06:58:26.909Z,39.88
2019-02-20T06:59:02.484Z,32.58
2019-02-20T06:59:38.044Z,34.67
2019-02-20T07:00:14.910Z,35.60
2019-02-20T07:00:50.497Z,36.88
2019-02-20T07:01:25.930Z,37.85
2019-02-20T07:02:01.277Z,38.20
2019-02-20T07:02:36.670Z,35.45
2019-02-20T07:03:11.994Z,36.60
2019-02-20T07:03:47.414Z,34.18
2019-02-20T07:04:22.774Z,36.28
2019-02-20T07:05:47.452Z,35.58
2019-02-20T07:06:50.472Z,32.80
2019-02-20T07:07:50.006Z,36.00
2019-02-20T07:09:17.178Z,35.05
2019-02-20T07:10:35.284Z,28.42
2019-02-20T07:11:54.149Z,34.00
2019-02-20T07:13:03.058Z,32.25
2019-02-20T07:14:06.638Z,35.83
2019-02-20T07:15:05.239Z,34.25
2019-02-20T07:16:12.198Z,32.45
2019-02-20T07:17:12.632Z,36.98
2019-02-20T07:18:13.137Z,33.30
2019-02-20T07:19:09.452Z,31.27
2019-02-20T07:20:16.824Z,33.33
2019-02-20T07:21:45.925Z,37.33
2019-02-20T07:23:02.403Z,31.02
2019-02-20T07:24:22.076Z,33.58
2019-02-20T07:25:27.265Z,32.70
2019-02-20T07:26:35.121Z,32.15
2019-02-20T07:27:45.639Z,28.75
2019-02-20T07:29:13.396Z,27.85
2019-02-20T07:30:05.759Z,22.58
2019-02-20T07:30:41.064Z,32.88
2019-02-20T07:31:16.519Z,32.10
2019-02-20T07:31:51.838Z,31.57
2019-02-20T07:32:27.247Z,35.25
2019-02-20T07:33:02.864Z,32.60
2019-02-20T07:33:38.150Z,31.02
2019-02-20T07:34:13.624Z,31.42
2019-02-20T07:34:49.349Z,33.35
2019-02-20T07:35:24.819Z,32.42
2019-02-20T07:36:00.164Z,30.60
2019-02-20T07:36:35.570Z,34.45
2019-02-20T07:37:11.210Z,32.70
2019-02-20T07:37:46.575Z,34.08
2019-02-20T07:38:22.089Z,33.85
2019-02-20T07:38:57.433Z,29.85
2019-02-20T07:39:32.825Z,30.62
2019-02-20T07:40:10.146Z,32.05
2019-02-20T07:40:45.426Z,30.75
2019-02-20T07:41:20.771Z,30.77
2019-02-20T07:41:56.143Z,31.23
2019-02-20T07:42:31.521Z,38.00
2019-02-20T07:43:06.963Z,36.98
2019-02-20T07:43:42.346Z,32.58
2019-02-20T07:44:17.825Z,33.63
2019-02-20T07:44:53.331Z,34.05
2019-02-20T07:45:28.794Z,37.23
2019-02-20T07:46:04.254Z,33.80
2019-02-20T07:46:39.830Z,31.77
2019-02-20T07:47:15.179Z,32.25
2019-02-20T07:47:50.619Z,32.42
2019-02-20T07:48:26.139Z,38.20
2019-02-20T07:49:01.707Z,34.73
2019-02-20T07:49:37.328Z,31.73
2019-02-20T07:50:14.896Z,32.60
2019-02-20T07:50:50.408Z,33.38
2019-02-20T07:51:25.928Z,34.20
2019-02-20T07:52:01.389Z,31.65